Sunday, January 21, 2018, 8:35 PM GMT
Back to Local

CWNC, Cobourg, Ont.

Location: , , Canada Lat: 43.95
Local Time: 8:35 PM GMT (20:35 GMT) Lon: -78.167
Time Zone: GMT Elev: 255 ft

Show me the last for .
Show Decoded

2018-01-21 20:00 METAR CWNC 212000Z AUTO 00000KT 02/M01 RMK AO1 SOG 01 6006 SLP187 T00221007 =
2018-01-21 19:00 METAR CWNC 211900Z AUTO 23003KT 02/M01 RMK AO1 SOG 01 6015 SLP187 T00211006 =
2018-01-21 18:00 METAR CWNC 211800Z AUTO 19001KT 02/M00 RMK AO1 SOG 01 8009 SLP189 T00241001 =
2018-01-21 17:00 METAR CWNC 211700Z AUTO 15001KT 02/M00 RMK AO1 SOG 01 8003 SLP193 T00231003 =
2018-01-21 16:00 METAR CWNC 211600Z AUTO 19004KT 01/M01 RMK AO1 SOG 01 3007 SLP202 T00131006 =
2018-01-21 15:00 METAR CWNC 211500Z AUTO 19001KT 01/M01 RMK AO1 SOG 01 1007 SLP198 T00091010 =
2018-01-21 14:00 METAR CWNC 211400Z AUTO 01001KT M00/M02 RMK AO1 SOG 01 1008 SLP196 T10021015 =
2018-01-21 13:00 METAR CWNC 211300Z AUTO 00000KT M00/M02 RMK AO1 SOG 01 2011 SLP195 T10011016 =
2018-01-21 12:00 METAR CWNC 211200Z AUTO 01003KT M00/M02 RMK AO1 SOG 01 1014 SLP191 T10021022 =
2018-01-21 11:00 METAR CWNC 211100Z AUTO 01003KT M01/M03 RMK AO1 SOG 01 3009 SLP188 T10091028 =
2018-01-21 10:00 METAR CWNC 211000Z AUTO 31002KT 00/M02 RMK AO1 SOG 01 1015 SLP184 T00001022 =
2018-01-21 09:00 METAR CWNC 210900Z AUTO 33002KT M00/M02 RMK AO1 SOG 01 0009 SLP177 T10031023 =
2018-01-21 08:00 METAR CWNC 210800Z AUTO 35002KT M00/M02 RMK AO1 SOG 01 3013 SLP179 T10011021 =
2018-01-21 07:00 METAR CWNC 210700Z AUTO 32003KT M00/M02 RMK AO1 SOG 01 1011 SLP169 T10031019 =
2018-01-21 06:00 METAR CWNC 210600Z AUTO 29002KT 01/M01 RMK AO1 SOG 01 2012 SLP168 T00131013 =
2018-01-21 05:00 METAR CWNC 210500Z AUTO 30005KT 02/M01 RMK AO1 SOG 01 3013 SLP165 T00211008 =
2018-01-21 04:00 METAR CWNC 210400Z AUTO 27007KT 02/M00 RMK AO1 SOG 01 1009 SLP157 T00181004 =
2018-01-21 03:00 METAR CWNC 210300Z AUTO 28007KT 02/M00 RMK AO1 SOG 01 1014 SLP155 T00171002 =
2018-01-21 02:00 METAR CWNC 210200Z AUTO 29006KT 03/M01 RMK AO1 SOG 01 1017 SLP152 T00261007 =
2018-01-21 01:00 METAR CWNC 210100Z AUTO 29008KT 03/01 RMK AO1 SOG 01 3018 SLP148 T00270005 =
2018-01-21 00:00 METAR CWNC 210000Z AUTO 28008KT 03/01 RMK AO1 SOG 01 1022 SLP141 T00270005 =
2018-01-20 23:00 METAR CWNC 202300Z AUTO 28009KT 02/01 RMK AO1 SOG 01 1028 SLP135 T00230005 =
2018-01-20 22:00 METAR CWNC 202200Z AUTO 28010G15KT 03/M01 RMK AO1 SOG 01 3030 SLP130 T00251007 =
2018-01-20 21:00 METAR CWNC 202100Z AUTO 28011KT 03/M01 RMK AO1 SOG 01 3024 PK WND 27019/2004
                 SLP119 T00271009 =

Support USWX by starting your Amazon purchase here.